Terminal Aerodrome Forecast
Issued by NWS

Home | Current Version | Previous Version | Text Only | Print | Product List | Glossary On
Versions: 1 2 3 4 5 6 7 8 9 10 11 12 13 14
036
FTUS46 KPDT 201720
TAFBDN
TAF
KBDN 201720Z 2018/2118 17011KT P6SM -SHRA OVC050
     FM210200 17006KT P6SM -SHRA BKN060=

USA.gov is the U.S. government's official web portal to all federal, state and local government web resources and services.